sensor_id;sensor_type;location;lat;lon;timestamp;temperature;humidity
4425;DHT22;2225;53.568;13.266;2022-10-17T00:00:56;15.10;92.80
4425;DHT22;2225;53.568;13.266;2022-10-17T00:03:23;15.10;93.20
4425;DHT22;2225;53.568;13.266;2022-10-17T00:05:50;15.10;92.80
4425;DHT22;2225;53.568;13.266;2022-10-17T00:08:18;15.10;92.80
4425;DHT22;2225;53.568;13.266;2022-10-17T00:10:54;15.10;92.80
4425;DHT22;2225;53.568;13.266;2022-10-17T00:13:23;15.10;92.90
4425;DHT22;2225;53.568;13.266;2022-10-17T00:15:50;15.10;92.90
4425;DHT22;2225;53.568;13.266;2022-10-17T00:18:17;15.10;92.90
4425;DHT22;2225;53.568;13.266;2022-10-17T00:20:44;15.10;93.00
4425;DHT22;2225;53.568;13.266;2022-10-17T00:23:11;15.10;93.00
4425;DHT22;2225;53.568;13.266;2022-10-17T00:25:38;15.10;93.10
4425;DHT22;2225;53.568;13.266;2022-10-17T00:28:09;15.10;93.10
4425;DHT22;2225;53.568;13.266;2022-10-17T00:30:36;15.10;93.20
4425;DHT22;2225;53.568;13.266;2022-10-17T00:33:04;15.10;93.20
4425;DHT22;2225;53.568;13.266;2022-10-17T00:35:31;15.10;93.20
4425;DHT22;2225;53.568;13.266;2022-10-17T00:37:58;15.10;93.20
4425;DHT22;2225;53.568;13.266;2022-10-17T00:40:25;15.10;93.20
4425;DHT22;2225;53.568;13.266;2022-10-17T00:42:52;15.10;93.20
4425;DHT22;2225;53.568;13.266;2022-10-17T00:45:26;15.10;93.20
4425;DHT22;2225;53.568;13.266;2022-10-17T00:48:06;15.20;93.20
4425;DHT22;2225;53.568;13.266;2022-10-17T00:50:35;15.20;93.30
4425;DHT22;2225;53.568;13.266;2022-10-17T00:53:05;15.20;93.10
4425;DHT22;2225;53.568;13.266;2022-10-17T00:55:37;15.20;93.20
4425;DHT22;2225;53.568;13.266;2022-10-17T00:58:10;15.20;93.30
4425;DHT22;2225;53.568;13.266;2022-10-17T01:00:37;15.20;93.30
4425;DHT22;2225;53.568;13.266;2022-10-17T01:03:03;15.20;93.40
4425;DHT22;2225;53.568;13.266;2022-10-17T01:05:31;15.10;93.40
4425;DHT22;2225;53.568;13.266;2022-10-17T01:07:57;15.10;93.50
4425;DHT22;2225;53.568;13.266;2022-10-17T01:10:53;15.10;93.60
4425;DHT22;2225;53.568;13.266;2022-10-17T01:13:38;15.10;93.80
4425;DHT22;2225;53.568;13.266;2022-10-17T01:16:35;15.10;93.70
4425;DHT22;2225;53.568;13.266;2022-10-17T01:19:25;15.20;93.90
4425;DHT22;2225;53.568;13.266;2022-10-17T01:25:10;15.20;93.70
4425;DHT22;2225;53.568;13.266;2022-10-17T01:27:56;15.30;93.70
4425;DHT22;2225;53.568;13.266;2022-10-17T01:33:58;15.30;93.70
4425;DHT22;2225;53.568;13.266;2022-10-17T01:36:37;15.30;93.70
4425;DHT22;2225;53.568;13.266;2022-10-17T01:39:24;15.30;93.60
4425;DHT22;2225;53.568;13.266;2022-10-17T01:42:25;15.30;93.60
4425;DHT22;2225;53.568;13.266;2022-10-17T01:45:07;15.40;93.60
4425;DHT22;2225;53.568;13.266;2022-10-17T01:47:38;15.40;93.50
4425;DHT22;2225;53.568;13.266;2022-10-17T01:50:16;15.40;93.50
4425;DHT22;2225;53.568;13.266;2022-10-17T01:52:50;15.40;93.50
4425;DHT22;2225;53.568;13.266;2022-10-17T01:55:26;15.40;93.50
4425;DHT22;2225;53.568;13.266;2022-10-17T01:58:04;15.40;93.50
4425;DHT22;2225;53.568;13.266;2022-10-17T02:00:34;15.50;93.50
4425;DHT22;2225;53.568;13.266;2022-10-17T02:03:06;15.50;93.50
4425;DHT22;2225;53.568;13.266;2022-10-17T02:05:38;15.50;93.50
4425;DHT22;2225;53.568;13.266;2022-10-17T02:08:06;15.50;93.60
4425;DHT22;2225;53.568;13.266;2022-10-17T02:10:46;15.50;93.60
4425;DHT22;2225;53.568;13.266;2022-10-17T02:25:40;15.60;94.20
4425;DHT22;2225;53.568;13.266;2022-10-17T02:28:28;15.60;94.20
4425;DHT22;2225;53.568;13.266;2022-10-17T02:31:18;15.60;94.40
4425;DHT22;2225;53.568;13.266;2022-10-17T02:33:53;15.60;94.40
4425;DHT22;2225;53.568;13.266;2022-10-17T02:36:28;15.60;94.20
4425;DHT22;2225;53.568;13.266;2022-10-17T02:39:00;15.60;94.30
4425;DHT22;2225;53.568;13.266;2022-10-17T02:41:29;15.60;94.30
4425;DHT22;2225;53.568;13.266;2022-10-17T02:43:57;15.60;94.30
4425;DHT22;2225;53.568;13.266;2022-10-17T02:46:28;15.60;94.20
4425;DHT22;2225;53.568;13.266;2022-10-17T02:49:09;15.70;94.30
4425;DHT22;2225;53.568;13.266;2022-10-17T02:51:44;15.70;94.50
4425;DHT22;2225;53.568;13.266;2022-10-17T02:54:42;15.70;94.40
4425;DHT22;2225;53.568;13.266;2022-10-17T02:57:21;15.70;94.50
4425;DHT22;2225;53.568;13.266;2022-10-17T02:59:54;15.70;94.40
4425;DHT22;2225;53.568;13.266;2022-10-17T03:02:24;15.70;94.30
4425;DHT22;2225;53.568;13.266;2022-10-17T03:04:50;15.80;94.40
4425;DHT22;2225;53.568;13.266;2022-10-17T03:07:17;15.80;94.40
4425;DHT22;2225;53.568;13.266;2022-10-17T03:09:44;15.80;94.40
4425;DHT22;2225;53.568;13.266;2022-10-17T03:12:11;15.90;94.40
4425;DHT22;2225;53.568;13.266;2022-10-17T03:14:38;15.90;94.50
4425;DHT22;2225;53.568;13.266;2022-10-17T03:17:05;15.90;94.40
4425;DHT22;2225;53.568;13.266;2022-10-17T03:19:32;15.90;94.40
4425;DHT22;2225;53.568;13.266;2022-10-17T03:21:59;15.90;94.40
4425;DHT22;2225;53.568;13.266;2022-10-17T03:24:26;15.90;94.40
4425;DHT22;2225;53.568;13.266;2022-10-17T03:26:53;15.90;94.50
4425;DHT22;2225;53.568;13.266;2022-10-17T03:29:20;15.90;94.50
4425;DHT22;2225;53.568;13.266;2022-10-17T03:31:47;16.00;94.50
4425;DHT22;2225;53.568;13.266;2022-10-17T03:34:15;16.00;94.50
4425;DHT22;2225;53.568;13.266;2022-10-17T03:36:44;16.00;94.50
4425;DHT22;2225;53.568;13.266;2022-10-17T03:39:11;16.00;94.50
4425;DHT22;2225;53.568;13.266;2022-10-17T03:41:38;16.00;94.50
4425;DHT22;2225;53.568;13.266;2022-10-17T03:44:05;16.00;94.50
4425;DHT22;2225;53.568;13.266;2022-10-17T03:46:32;16.00;94.90
4425;DHT22;2225;53.568;13.266;2022-10-17T03:48:59;16.10;94.50
4425;DHT22;2225;53.568;13.266;2022-10-17T03:51:27;16.10;94.50
4425;DHT22;2225;53.568;13.266;2022-10-17T03:54:00;16.10;94.50
4425;DHT22;2225;53.568;13.266;2022-10-17T03:56:27;16.10;94.50
4425;DHT22;2225;53.568;13.266;2022-10-17T03:58:59;16.20;94.60
4425;DHT22;2225;53.568;13.266;2022-10-17T04:01:28;16.20;94.50
4425;DHT22;2225;53.568;13.266;2022-10-17T04:03:56;16.20;94.50
4425;DHT22;2225;53.568;13.266;2022-10-17T04:06:27;16.20;94.60
4425;DHT22;2225;53.568;13.266;2022-10-17T04:08:54;16.30;94.60
4425;DHT22;2225;53.568;13.266;2022-10-17T04:11:30;16.30;94.50
4425;DHT22;2225;53.568;13.266;2022-10-17T04:13:59;16.40;94.50
4425;DHT22;2225;53.568;13.266;2022-10-17T04:16:27;16.40;94.50
4425;DHT22;2225;53.568;13.266;2022-10-17T04:19:01;16.40;94.50
4425;DHT22;2225;53.568;13.266;2022-10-17T04:21:34;16.50;94.50
4425;DHT22;2225;53.568;13.266;2022-10-17T04:24:05;16.50;94.50
4425;DHT22;2225;53.568;13.266;2022-10-17T04:26:44;16.50;94.50
4425;DHT22;2225;53.568;13.266;2022-10-17T04:29:13;16.50;94.40
4425;DHT22;2225;53.568;13.266;2022-10-17T04:31:43;16.60;94.40
4425;DHT22;2225;53.568;13.266;2022-10-17T04:34:20;16.60;94.40
4425;DHT22;2225;53.568;13.266;2022-10-17T04:36:47;16.70;94.60
4425;DHT22;2225;53.568;13.266;2022-10-17T04:39:14;16.70;94.30
4425;DHT22;2225;53.568;13.266;2022-10-17T04:41:41;16.70;94.30
4425;DHT22;2225;53.568;13.266;2022-10-17T04:44:09;16.70;94.30
4425;DHT22;2225;53.568;13.266;2022-10-17T04:46:40;16.70;94.20
4425;DHT22;2225;53.568;13.266;2022-10-17T04:49:07;16.70;94.20
4425;DHT22;2225;53.568;13.266;2022-10-17T04:51:36;16.70;94.20
4425;DHT22;2225;53.568;13.266;2022-10-17T04:54:12;16.70;94.10
4425;DHT22;2225;53.568;13.266;2022-10-17T04:56:41;16.70;94.20
4425;DHT22;2225;53.568;13.266;2022-10-17T04:59:08;16.70;94.20
4425;DHT22;2225;53.568;13.266;2022-10-17T05:01:37;16.70;94.20
4425;DHT22;2225;53.568;13.266;2022-10-17T05:04:05;16.80;94.20
4425;DHT22;2225;53.568;13.266;2022-10-17T05:06:32;16.80;94.20
4425;DHT22;2225;53.568;13.266;2022-10-17T05:09:27;16.80;94.30
4425;DHT22;2225;53.568;13.266;2022-10-17T05:11:54;16.80;94.20
4425;DHT22;2225;53.568;13.266;2022-10-17T05:14:21;16.80;94.20
4425;DHT22;2225;53.568;13.266;2022-10-17T05:16:48;16.90;94.20
4425;DHT22;2225;53.568;13.266;2022-10-17T05:19:15;16.90;94.20
4425;DHT22;2225;53.568;13.266;2022-10-17T05:21:46;16.90;94.20
4425;DHT22;2225;53.568;13.266;2022-10-17T05:24:13;16.90;94.10
4425;DHT22;2225;53.568;13.266;2022-10-17T05:26:40;17.00;94.10
4425;DHT22;2225;53.568;13.266;2022-10-17T05:29:07;17.00;94.10
4425;DHT22;2225;53.568;13.266;2022-10-17T05:31:40;17.00;94.00
4425;DHT22;2225;53.568;13.266;2022-10-17T05:34:07;17.10;93.90
4425;DHT22;2225;53.568;13.266;2022-10-17T05:36:40;17.10;93.80
4425;DHT22;2225;53.568;13.266;2022-10-17T05:39:08;17.10;93.80
4425;DHT22;2225;53.568;13.266;2022-10-17T05:41:36;17.10;93.70
4425;DHT22;2225;53.568;13.266;2022-10-17T05:44:03;17.20;93.70
4425;DHT22;2225;53.568;13.266;2022-10-17T05:46:39;17.20;93.60
4425;DHT22;2225;53.568;13.266;2022-10-17T05:49:08;17.20;93.60
4425;DHT22;2225;53.568;13.266;2022-10-17T05:51:58;17.20;93.70
4425;DHT22;2225;53.568;13.266;2022-10-17T05:54:25;17.20;93.70
4425;DHT22;2225;53.568;13.266;2022-10-17T05:56:55;17.20;93.70
4425;DHT22;2225;53.568;13.266;2022-10-17T05:59:27;17.20;93.60
4425;DHT22;2225;53.568;13.266;2022-10-17T06:02:03;17.20;93.60
4425;DHT22;2225;53.568;13.266;2022-10-17T06:04:30;17.30;93.60
4425;DHT22;2225;53.568;13.266;2022-10-17T06:06:59;17.20;93.50
4425;DHT22;2225;53.568;13.266;2022-10-17T06:09:27;17.20;93.40
4425;DHT22;2225;53.568;13.266;2022-10-17T06:11:55;17.30;93.40
4425;DHT22;2225;53.568;13.266;2022-10-17T06:14:22;17.20;93.30
4425;DHT22;2225;53.568;13.266;2022-10-17T06:16:53;17.20;93.30
4425;DHT22;2225;53.568;13.266;2022-10-17T06:19:20;17.20;93.20
4425;DHT22;2225;53.568;13.266;2022-10-17T06:21:47;17.20;93.30
4425;DHT22;2225;53.568;13.266;2022-10-17T06:24:19;17.20;93.30
4425;DHT22;2225;53.568;13.266;2022-10-17T06:26:46;17.20;93.30
4425;DHT22;2225;53.568;13.266;2022-10-17T06:29:15;17.30;93.40
4425;DHT22;2225;53.568;13.266;2022-10-17T06:31:46;17.30;93.40
4425;DHT22;2225;53.568;13.266;2022-10-17T06:34:13;17.30;93.30
4425;DHT22;2225;53.568;13.266;2022-10-17T06:36:41;17.30;93.30
4425;DHT22;2225;53.568;13.266;2022-10-17T06:39:08;17.30;93.30
4425;DHT22;2225;53.568;13.266;2022-10-17T06:41:40;17.30;93.20
4425;DHT22;2225;53.568;13.266;2022-10-17T06:44:10;17.30;93.20
4425;DHT22;2225;53.568;13.266;2022-10-17T06:46:48;17.30;93.30
4425;DHT22;2225;53.568;13.266;2022-10-17T06:49:16;17.30;93.30
4425;DHT22;2225;53.568;13.266;2022-10-17T06:51:50;17.30;93.30
4425;DHT22;2225;53.568;13.266;2022-10-17T06:54:22;17.40;93.30
4425;DHT22;2225;53.568;13.266;2022-10-17T06:57:24;17.40;93.30
4425;DHT22;2225;53.568;13.266;2022-10-17T07:00:01;17.50;93.30
4425;DHT22;2225;53.568;13.266;2022-10-17T07:02:38;17.50;93.40
4425;DHT22;2225;53.568;13.266;2022-10-17T07:05:05;17.60;93.40
4425;DHT22;2225;53.568;13.266;2022-10-17T07:07:33;17.60;93.30
4425;DHT22;2225;53.568;13.266;2022-10-17T07:10:04;17.60;93.30
4425;DHT22;2225;53.568;13.266;2022-10-17T07:12:35;17.70;93.30
4425;DHT22;2225;53.568;13.266;2022-10-17T07:15:03;17.70;93.30
4425;DHT22;2225;53.568;13.266;2022-10-17T07:17:31;17.80;93.30
4425;DHT22;2225;53.568;13.266;2022-10-17T07:19:58;17.70;93.30
4425;DHT22;2225;53.568;13.266;2022-10-17T07:22:25;17.80;93.40
4425;DHT22;2225;53.568;13.266;2022-10-17T07:24:56;17.80;93.40
4425;DHT22;2225;53.568;13.266;2022-10-17T07:27:27;17.90;93.50
4425;DHT22;2225;53.568;13.266;2022-10-17T07:29:55;18.00;93.50
4425;DHT22;2225;53.568;13.266;2022-10-17T07:32:31;18.00;93.70
4425;DHT22;2225;53.568;13.266;2022-10-17T07:34:58;18.10;93.80
4425;DHT22;2225;53.568;13.266;2022-10-17T07:37:25;18.10;93.90
4425;DHT22;2225;53.568;13.266;2022-10-17T07:39:54;18.20;94.10
4425;DHT22;2225;53.568;13.266;2022-10-17T07:42:22;18.30;94.30
4425;DHT22;2225;53.568;13.266;2022-10-17T07:44:49;18.30;94.40
4425;DHT22;2225;53.568;13.266;2022-10-17T07:47:17;18.50;94.50
4425;DHT22;2225;53.568;13.266;2022-10-17T07:49:46;18.60;94.60
4425;DHT22;2225;53.568;13.266;2022-10-17T07:52:13;18.70;94.70
4425;DHT22;2225;53.568;13.266;2022-10-17T07:54:41;18.70;94.70
4425;DHT22;2225;53.568;13.266;2022-10-17T07:57:09;18.80;94.70
4425;DHT22;2225;53.568;13.266;2022-10-17T07:59:37;18.90;94.80
4425;DHT22;2225;53.568;13.266;2022-10-17T08:02:04;19.00;94.70
4425;DHT22;2225;53.568;13.266;2022-10-17T08:04:33;19.10;94.70
4425;DHT22;2225;53.568;13.266;2022-10-17T08:07:01;19.20;94.70
4425;DHT22;2225;53.568;13.266;2022-10-17T08:09:47;19.20;94.60
4425;DHT22;2225;53.568;13.266;2022-10-17T08:12:14;19.40;94.60
4425;DHT22;2225;53.568;13.266;2022-10-17T08:14:41;19.50;94.60
4425;DHT22;2225;53.568;13.266;2022-10-17T08:17:09;19.50;94.60
4425;DHT22;2225;53.568;13.266;2022-10-17T08:19:39;19.60;94.60
4425;DHT22;2225;53.568;13.266;2022-10-17T08:22:06;19.70;94.70
4425;DHT22;2225;53.568;13.266;2022-10-17T08:24:33;19.70;94.70
4425;DHT22;2225;53.568;13.266;2022-10-17T08:27:01;19.90;94.70
4425;DHT22;2225;53.568;13.266;2022-10-17T08:29:29;20.00;94.60
4425;DHT22;2225;53.568;13.266;2022-10-17T08:31:58;20.10;94.60
4425;DHT22;2225;53.568;13.266;2022-10-17T08:34:27;20.20;94.50
4425;DHT22;2225;53.568;13.266;2022-10-17T08:36:54;20.30;94.40
4425;DHT22;2225;53.568;13.266;2022-10-17T08:39:21;20.40;94.20
4425;DHT22;2225;53.568;13.266;2022-10-17T08:47:34;20.60;93.80
4425;DHT22;2225;53.568;13.266;2022-10-17T08:50:05;20.70;93.60
4425;DHT22;2225;53.568;13.266;2022-10-17T08:52:52;20.80;93.60
4425;DHT22;2225;53.568;13.266;2022-10-17T08:55:31;20.90;93.50
4425;DHT22;2225;53.568;13.266;2022-10-17T08:58:00;20.90;93.60
4425;DHT22;2225;53.568;13.266;2022-10-17T09:00:28;21.00;93.30
4425;DHT22;2225;53.568;13.266;2022-10-17T09:12:13;21.40;92.90
4425;DHT22;2225;53.568;13.266;2022-10-17T09:18:06;21.60;92.40
4425;DHT22;2225;53.568;13.266;2022-10-17T09:20:42;21.70;92.40
4425;DHT22;2225;53.568;13.266;2022-10-17T09:23:16;21.80;92.00
4425;DHT22;2225;53.568;13.266;2022-10-17T09:25:54;21.80;91.80
4425;DHT22;2225;53.568;13.266;2022-10-17T09:31:06;22.00;91.70
4425;DHT22;2225;53.568;13.266;2022-10-17T09:33:46;22.10;91.50
4425;DHT22;2225;53.568;13.266;2022-10-17T09:36:32;22.20;91.50
4425;DHT22;2225;53.568;13.266;2022-10-17T09:39:05;22.20;91.30
4425;DHT22;2225;53.568;13.266;2022-10-17T09:41:41;22.30;91.20
4425;DHT22;2225;53.568;13.266;2022-10-17T09:44:32;22.40;91.00
4425;DHT22;2225;53.568;13.266;2022-10-17T09:50:00;22.50;90.90
4425;DHT22;2225;53.568;13.266;2022-10-17T09:52:33;22.50;91.00
4425;DHT22;2225;53.568;13.266;2022-10-17T09:55:16;22.60;90.80
4425;DHT22;2225;53.568;13.266;2022-10-17T09:57:53;22.70;90.90
4425;DHT22;2225;53.568;13.266;2022-10-17T10:00:30;22.80;90.70
4425;DHT22;2225;53.568;13.266;2022-10-17T10:03:11;22.80;90.40
4425;DHT22;2225;53.568;13.266;2022-10-17T10:05:41;22.90;90.50
4425;DHT22;2225;53.568;13.266;2022-10-17T10:08:16;23.00;90.30
4425;DHT22;2225;53.568;13.266;2022-10-17T10:10:44;23.10;90.20
4425;DHT22;2225;53.568;13.266;2022-10-17T10:15:48;23.10;90.10
4425;DHT22;2225;53.568;13.266;2022-10-17T10:18:26;23.30;89.40
4425;DHT22;2225;53.568;13.266;2022-10-17T10:21:12;23.30;89.10
4425;DHT22;2225;53.568;13.266;2022-10-17T10:23:42;23.40;89.60
4425;DHT22;2225;53.568;13.266;2022-10-17T10:26:17;23.40;89.60
4425;DHT22;2225;53.568;13.266;2022-10-17T10:32:19;23.60;88.30
4425;DHT22;2225;53.568;13.266;2022-10-17T10:34:56;23.60;87.90
4425;DHT22;2225;53.568;13.266;2022-10-17T10:37:38;23.70;88.40
4425;DHT22;2225;53.568;13.266;2022-10-17T10:40:25;23.70;88.40
4425;DHT22;2225;53.568;13.266;2022-10-17T10:43:23;23.80;87.60
4425;DHT22;2225;53.568;13.266;2022-10-17T10:45:51;23.80;87.60
4425;DHT22;2225;53.568;13.266;2022-10-17T10:48:24;23.90;87.80
4425;DHT22;2225;53.568;13.266;2022-10-17T10:53:37;23.90;87.30
4425;DHT22;2225;53.568;13.266;2022-10-17T10:56:27;23.90;87.10
4425;DHT22;2225;53.568;13.266;2022-10-17T10:59:11;24.00;87.30
4425;DHT22;2225;53.568;13.266;2022-10-17T11:04:38;24.00;87.80
4425;DHT22;2225;53.568;13.266;2022-10-17T11:07:19;24.10;87.30
4425;DHT22;2225;53.568;13.266;2022-10-17T11:10:31;24.10;87.00
4425;DHT22;2225;53.568;13.266;2022-10-17T11:13:25;24.10;86.70
4425;DHT22;2225;53.568;13.266;2022-10-17T11:16:14;24.20;86.70
4425;DHT22;2225;53.568;13.266;2022-10-17T11:19:20;24.20;86.90
4425;DHT22;2225;53.568;13.266;2022-10-17T11:22:01;24.20;86.60
4425;DHT22;2225;53.568;13.266;2022-10-17T11:24:52;24.30;87.20
4425;DHT22;2225;53.568;13.266;2022-10-17T11:27:27;24.40;87.30
4425;DHT22;2225;53.568;13.266;2022-10-17T11:29:55;24.50;87.60
4425;DHT22;2225;53.568;13.266;2022-10-17T11:32:33;24.60;87.10
4425;DHT22;2225;53.568;13.266;2022-10-17T11:35:13;24.70;87.00
4425;DHT22;2225;53.568;13.266;2022-10-17T11:37:49;24.80;86.30
4425;DHT22;2225;53.568;13.266;2022-10-17T11:40:32;24.80;85.70
4425;DHT22;2225;53.568;13.266;2022-10-17T11:43:05;24.90;85.60
4425;DHT22;2225;53.568;13.266;2022-10-17T11:45:47;25.00;85.70
4425;DHT22;2225;53.568;13.266;2022-10-17T11:48:29;25.10;85.10
4425;DHT22;2225;53.568;13.266;2022-10-17T11:51:12;25.10;84.30
4425;DHT22;2225;53.568;13.266;2022-10-17T11:54:15;25.10;84.10
4425;DHT22;2225;53.568;13.266;2022-10-17T11:59:46;25.20;83.90
4425;DHT22;2225;53.568;13.266;2022-10-17T12:02:29;25.20;84.30
4425;DHT22;2225;53.568;13.266;2022-10-17T12:05:04;25.30;84.70
4425;DHT22;2225;53.568;13.266;2022-10-17T12:08:12;25.30;84.30
4425;DHT22;2225;53.568;13.266;2022-10-17T12:10:54;25.30;84.20
4425;DHT22;2225;53.568;13.266;2022-10-17T12:15:54;25.50;84.60
4425;DHT22;2225;53.568;13.266;2022-10-17T12:18:25;25.50;83.90
4425;DHT22;2225;53.568;13.266;2022-10-17T12:20:57;25.50;83.70
4425;DHT22;2225;53.568;13.266;2022-10-17T12:23:30;25.50;83.90
4425;DHT22;2225;53.568;13.266;2022-10-17T12:26:02;25.60;84.10
4425;DHT22;2225;53.568;13.266;2022-10-17T12:33:59;25.80;83.90
4425;DHT22;2225;53.568;13.266;2022-10-17T12:46:49;26.10;82.80
4425;DHT22;2225;53.568;13.266;2022-10-17T12:49:43;26.20;83.00
4425;DHT22;2225;53.568;13.266;2022-10-17T12:52:24;26.20;82.20
4425;DHT22;2225;53.568;13.266;2022-10-17T12:58:02;26.20;82.90
4425;DHT22;2225;53.568;13.266;2022-10-17T13:03:32;26.30;82.00
4425;DHT22;2225;53.568;13.266;2022-10-17T13:06:04;26.30;82.00
4425;DHT22;2225;53.568;13.266;2022-10-17T13:08:35;26.30;81.40
4425;DHT22;2225;53.568;13.266;2022-10-17T13:11:05;26.30;81.50
4425;DHT22;2225;53.568;13.266;2022-10-17T13:13:45;26.40;81.40
4425;DHT22;2225;53.568;13.266;2022-10-17T13:16:49;26.30;80.80
4425;DHT22;2225;53.568;13.266;2022-10-17T13:19:28;26.40;81.00
4425;DHT22;2225;53.568;13.266;2022-10-17T13:22:25;26.40;81.40
4425;DHT22;2225;53.568;13.266;2022-10-17T13:25:07;26.50;81.50
4425;DHT22;2225;53.568;13.266;2022-10-17T13:27:37;26.50;81.00
4425;DHT22;2225;53.568;13.266;2022-10-17T13:32:47;26.60;80.10
4425;DHT22;2225;53.568;13.266;2022-10-17T13:35:21;26.60;80.70
4425;DHT22;2225;53.568;13.266;2022-10-17T13:38:11;26.60;80.10
4425;DHT22;2225;53.568;13.266;2022-10-17T13:40:40;26.60;79.90
4425;DHT22;2225;53.568;13.266;2022-10-17T13:43:21;26.70;80.00
4425;DHT22;2225;53.568;13.266;2022-10-17T13:45:54;26.70;79.70
4425;DHT22;2225;53.568;13.266;2022-10-17T13:48:36;26.70;79.90
4425;DHT22;2225;53.568;13.266;2022-10-17T13:51:04;26.70;79.70
4425;DHT22;2225;53.568;13.266;2022-10-17T13:53:38;26.60;79.40
4425;DHT22;2225;53.568;13.266;2022-10-17T13:56:22;26.60;79.50
4425;DHT22;2225;53.568;13.266;2022-10-17T13:59:00;26.60;79.40
4425;DHT22;2225;53.568;13.266;2022-10-17T14:01:32;26.60;79.50
4425;DHT22;2225;53.568;13.266;2022-10-17T14:03:59;26.60;79.90
4425;DHT22;2225;53.568;13.266;2022-10-17T14:06:41;26.60;79.90
4425;DHT22;2225;53.568;13.266;2022-10-17T14:09:24;26.60;79.60
4425;DHT22;2225;53.568;13.266;2022-10-17T14:12:09;26.60;79.80
4425;DHT22;2225;53.568;13.266;2022-10-17T14:14:39;26.50;79.50
4425;DHT22;2225;53.568;13.266;2022-10-17T14:17:28;26.50;79.80
4425;DHT22;2225;53.568;13.266;2022-10-17T14:20:02;26.50;80.00
4425;DHT22;2225;53.568;13.266;2022-10-17T14:22:50;26.50;80.00
4425;DHT22;2225;53.568;13.266;2022-10-17T14:25:39;26.50;80.00
4425;DHT22;2225;53.568;13.266;2022-10-17T14:30:37;26.50;80.10
4425;DHT22;2225;53.568;13.266;2022-10-17T14:33:30;26.50;80.20
4425;DHT22;2225;53.568;13.266;2022-10-17T14:35:59;26.50;80.10
4425;DHT22;2225;53.568;13.266;2022-10-17T14:38:28;26.50;80.00
4425;DHT22;2225;53.568;13.266;2022-10-17T14:41:13;26.50;80.10
4425;DHT22;2225;53.568;13.266;2022-10-17T14:44:03;26.40;80.00
4425;DHT22;2225;53.568;13.266;2022-10-17T14:46:33;26.40;80.20
4425;DHT22;2225;53.568;13.266;2022-10-17T14:49:07;26.30;80.20
4425;DHT22;2225;53.568;13.266;2022-10-17T14:52:19;26.30;80.30
4425;DHT22;2225;53.568;13.266;2022-10-17T14:54:50;26.30;80.50
4425;DHT22;2225;53.568;13.266;2022-10-17T14:59:49;26.20;80.70
4425;DHT22;2225;53.568;13.266;2022-10-17T15:02:26;26.20;80.70
4425;DHT22;2225;53.568;13.266;2022-10-17T15:04:54;26.20;80.80
4425;DHT22;2225;53.568;13.266;2022-10-17T15:07:21;26.10;80.70
4425;DHT22;2225;53.568;13.266;2022-10-17T15:09:50;26.10;80.80
4425;DHT22;2225;53.568;13.266;2022-10-17T15:12:21;26.10;80.90
4425;DHT22;2225;53.568;13.266;2022-10-17T15:14:51;26.00;81.00
4425;DHT22;2225;53.568;13.266;2022-10-17T15:17:25;26.00;81.10
4425;DHT22;2225;53.568;13.266;2022-10-17T15:19:53;26.00;81.30
4425;DHT22;2225;53.568;13.266;2022-10-17T15:22:20;25.90;81.20
4425;DHT22;2225;53.568;13.266;2022-10-17T15:24:47;25.90;81.30
4425;DHT22;2225;53.568;13.266;2022-10-17T15:27:16;25.80;81.30
4425;DHT22;2225;53.568;13.266;2022-10-17T15:29:44;25.80;81.40
4425;DHT22;2225;53.568;13.266;2022-10-17T15:32:11;25.80;81.60
4425;DHT22;2225;53.568;13.266;2022-10-17T15:34:39;25.70;81.70
4425;DHT22;2225;53.568;13.266;2022-10-17T15:37:20;25.70;81.80
4425;DHT22;2225;53.568;13.266;2022-10-17T15:39:53;25.70;82.10
4425;DHT22;2225;53.568;13.266;2022-10-17T15:42:28;25.70;82.10
4425;DHT22;2225;53.568;13.266;2022-10-17T15:44:56;25.60;82.20
4425;DHT22;2225;53.568;13.266;2022-10-17T15:47:27;25.60;82.20
4425;DHT22;2225;53.568;13.266;2022-10-17T15:49:56;25.60;82.40
4425;DHT22;2225;53.568;13.266;2022-10-17T15:52:24;25.50;82.40
4425;DHT22;2225;53.568;13.266;2022-10-17T15:54:52;25.50;82.60
4425;DHT22;2225;53.568;13.266;2022-10-17T15:57:26;25.40;82.70
4425;DHT22;2225;53.568;13.266;2022-10-17T15:59:56;25.40;83.00
4425;DHT22;2225;53.568;13.266;2022-10-17T16:02:24;25.40;83.10
4425;DHT22;2225;53.568;13.266;2022-10-17T16:04:52;25.40;83.30
4425;DHT22;2225;53.568;13.266;2022-10-17T16:07:19;25.30;83.40
4425;DHT22;2225;53.568;13.266;2022-10-17T16:09:47;25.30;83.60
4425;DHT22;2225;53.568;13.266;2022-10-17T16:12:25;25.20;83.80
4425;DHT22;2225;53.568;13.266;2022-10-17T16:14:53;25.20;84.00
4425;DHT22;2225;53.568;13.266;2022-10-17T16:17:20;25.20;84.10
4425;DHT22;2225;53.568;13.266;2022-10-17T16:19:47;25.20;84.20
4425;DHT22;2225;53.568;13.266;2022-10-17T16:22:32;25.10;84.40
4425;DHT22;2225;53.568;13.266;2022-10-17T16:25:03;25.10;85.00
4425;DHT22;2225;53.568;13.266;2022-10-17T16:27:37;25.00;84.70
4425;DHT22;2225;53.568;13.266;2022-10-17T16:30:06;25.00;85.00
4425;DHT22;2225;53.568;13.266;2022-10-17T16:32:33;24.90;85.00
4425;DHT22;2225;53.568;13.266;2022-10-17T16:35:00;24.90;85.20
4425;DHT22;2225;53.568;13.266;2022-10-17T16:37:27;24.90;85.30
4425;DHT22;2225;53.568;13.266;2022-10-17T16:39:54;24.90;85.30
4425;DHT22;2225;53.568;13.266;2022-10-17T16:42:21;24.80;85.30
4425;DHT22;2225;53.568;13.266;2022-10-17T16:44:49;24.80;85.30
4425;DHT22;2225;53.568;13.266;2022-10-17T16:47:17;24.80;85.40
4425;DHT22;2225;53.568;13.266;2022-10-17T16:49:44;24.80;85.30
4425;DHT22;2225;53.568;13.266;2022-10-17T16:52:12;24.80;85.20
4425;DHT22;2225;53.568;13.266;2022-10-17T16:54:38;24.70;85.20
4425;DHT22;2225;53.568;13.266;2022-10-17T16:57:05;24.70;85.10
4425;DHT22;2225;53.568;13.266;2022-10-17T16:59:32;24.70;85.10
4425;DHT22;2225;53.568;13.266;2022-10-17T17:01:59;24.70;85.00
4425;DHT22;2225;53.568;13.266;2022-10-17T17:04:26;24.60;84.90
4425;DHT22;2225;53.568;13.266;2022-10-17T17:06:53;24.60;84.80
4425;DHT22;2225;53.568;13.266;2022-10-17T17:09:20;24.60;84.70
4425;DHT22;2225;53.568;13.266;2022-10-17T17:11:47;24.60;84.60
4425;DHT22;2225;53.568;13.266;2022-10-17T17:14:14;24.60;84.70
4425;DHT22;2225;53.568;13.266;2022-10-17T17:16:40;24.60;84.80
4425;DHT22;2225;53.568;13.266;2022-10-17T17:19:14;24.60;84.80
4425;DHT22;2225;53.568;13.266;2022-10-17T17:21:42;24.60;84.70
4425;DHT22;2225;53.568;13.266;2022-10-17T17:24:16;24.50;84.60
4425;DHT22;2225;53.568;13.266;2022-10-17T17:26:51;24.60;84.60
4425;DHT22;2225;53.568;13.266;2022-10-17T17:29:19;24.60;84.50
4425;DHT22;2225;53.568;13.266;2022-10-17T17:31:47;24.50;84.50
4425;DHT22;2225;53.568;13.266;2022-10-17T17:34:14;24.50;84.50
4425;DHT22;2225;53.568;13.266;2022-10-17T17:36:43;24.50;84.50
4425;DHT22;2225;53.568;13.266;2022-10-17T17:39:13;24.50;84.50
4425;DHT22;2225;53.568;13.266;2022-10-17T17:41:41;24.50;84.40
4425;DHT22;2225;53.568;13.266;2022-10-17T17:44:10;24.50;84.50
4425;DHT22;2225;53.568;13.266;2022-10-17T17:46:42;24.50;84.50
4425;DHT22;2225;53.568;13.266;2022-10-17T17:49:10;24.50;84.40
4425;DHT22;2225;53.568;13.266;2022-10-17T17:51:37;24.50;84.40